• Join FlightAware (Why Join?)
  • Login
  • US Flag 
09:06PM EDT


 

Airport Tracker/Info


-or-


 

Live Flight TrackerFlight Track Log ✈ SKW4564 ✈ 25-Aug-2013 ✈ KSLC - KMSO

Flight Track Log - Related Links

Times and Time Zones

All times are in EDT time to prevent confusion due to time zone crossing. See the SKW4564 flight status page for this flight to view local times or setup timezone preferences in your user account.

Time Position Orientation Groundspeed Altitude Reporting Facility
EDT Latitude Longitude Course Direction KTS MPH feet Rate Location/Type
10:32PM 40.7711 -111.9744 50° Northeast 173 199 4,900  Level Salt Lake Center
10:33PM 40.7475 -112.0283 240° Southwest 217 250 6,900 1,680 Climbing Salt Lake Center
10:34PM 40.7864 -112.1064 303° West 276 318 8,600 1,620 Climbing Salt Lake Center
10:35PM 40.8469 -112.1817 317° Northwest 300 345 10,300 1,920 Climbing Salt Lake Center
10:36PM 41.0698 -112.0167 North  Level FlightAware Approximate
10:36PM 40.9425 -112.2400 335° Northwest 323 372 12,600  Level Salt Lake Center
10:37PM 41.1503 -111.9116 50° Northeast  Level FlightAware Approximate
10:37PM 41.0342 -112.2658 348° North 336 387 14,400  Level Salt Lake Center
10:38PM 41.1269 -112.2914 348° North 337 388 16,200 1,560 Climbing Salt Lake Center
10:39PM 41.2225 -112.3181 348° North 347 399 17,700 1,260 Climbing Salt Lake Center
10:40PM 41.3208 -112.3469 348° North 359 413 18,900 1,080 Climbing Salt Lake Center
10:41PM 41.4233 -112.3750 348° North 375 432 20,000 1,020 Climbing Salt Lake Center
10:42PM 41.5289 -112.4044 348° North 387 445 21,000 900 Climbing Salt Lake Center
10:43PM 41.6369 -112.4356 348° North 396 456 21,900 900 Climbing Salt Lake Center
10:44PM 41.7667 -112.4728 348° North 395 455 22,900 840 Climbing Salt Lake Center
10:45PM 41.8769 -112.5064 347° North 402 463 23,700 480 Climbing Salt Lake Center
10:46PM 41.9922 -112.5375 349° North 418 481 24,000 120 Climbing Salt Lake Center
10:47PM 42.1119 -112.5731 348° North 436 502 24,000  Level Salt Lake Center
10:48PM 42.2308 -112.6058 348° North 436 502 24,000  Level Salt Lake Center
10:49PM 42.3458 -112.6406 347° North 426 490 24,000  Level Salt Lake Center
10:51PM 42.4625 -112.6753 348° North 429 494 24,000  Level Salt Lake Center
10:52PM 42.5789 -112.7094 348° North 429 494 24,000  Level Salt Lake Center
10:53PM 42.7181 -112.7497 348° North 426 490 24,000  Level Salt Lake Center
10:54PM 42.8297 -112.7831 348° North 427 491 24,000  Level Salt Lake Center
10:55PM 42.9408 -112.8128 349° North 426 490 24,000  Level Salt Lake Center
10:56PM 43.0694 -112.8503 348° North 422 486 24,000  Level Salt Lake Center
10:57PM 43.1811 -112.8839 348° North 425 489 24,000  Level Salt Lake Center
10:58PM 43.3097 -112.9242 347° North 426 490 24,000  Level Salt Lake Center
10:59PM 43.4178 -112.9569 348° North 420 483 24,000  Level Salt Lake Center
11:00PM 43.5281 -112.9906 348° North 420 483 24,000  Level Salt Lake Center
11:01PM 43.6569 -113.0289 348° North 422 486 24,000  Level Salt Lake Center
11:02PM 43.7669 -113.0631 347° North 424 488 24,000  Level Salt Lake Center
11:03PM 43.8967 -113.1033 347° North 425 489 24,000  Level Salt Lake Center
11:04PM 44.0078 -113.1397 347° North 426 490 24,000  Level Salt Lake Center
11:05PM 44.1203 -113.1739 348° North 428 493 24,000  Level Salt Lake Center
11:06PM 44.2511 -113.2133 348° North 429 494 24,000  Level Salt Lake Center
11:07PM 44.3631 -113.2483 347° North 429 494 24,000  Level Salt Lake Center
11:08PM 44.4753 -113.2839 347° North 430 495 24,000  Level Salt Lake Center
11:09PM 44.6044 -113.3250 347° North 428 493 24,000  Level Salt Lake Center
11:10PM 44.7158 -113.3592 348° North 427 491 24,000  Level Salt Lake Center
11:11PM 44.8444 -113.4006 347° North 425 489 24,000  Level Salt Lake Center
11:12PM 44.9539 -113.4347 348° North 422 486 24,000  Level Salt Lake Center
11:13PM 45.0639 -113.4686 348° North 422 486 24,000  Level Salt Lake Center
11:14PM 45.1914 -113.5119 347° North 421 484 24,000  Level Salt Lake Center
11:15PM 45.3019 -113.5469 347° North 422 486 24,000  Level Salt Lake Center
11:16PM 45.4150 -113.5819 348° North 427 491 24,000 -840 Level Salt Lake Center
11:17PM 45.5458 -113.6225 348° North 430 495 22,400 -1,440 Descending Salt Lake Center
11:18PM 45.6392 -113.6531 347° North 419 482 21,100 -1,560 Descending Salt Lake Center
11:19PM 45.7700 -113.6961 347° North 407 468 19,300 -1,620 Descending Salt Lake Center
11:20PM 45.8789 -113.7317 347° North 404 465 17,800 -1,440 Descending Salt Lake Center
11:21PM 45.9842 -113.7703 346° North 397 457 16,400 -1,380 Descending Salt Lake Center
11:22PM 46.0872 -113.8069 346° North 390 449 15,000 -660 Descending Salt Lake Center
11:23PM 46.1875 -113.8411 347° North 345 397 15,100  Climbing Salt Lake Center
11:24PM 46.2775 -113.8689 348° North 334 384 15,100 -120 Level Salt Lake Center
11:25PM 46.3572 -113.8953 347° North 295 339 14,900 -900 Descending Salt Lake Center
11:26PM 46.4361 -113.9225 347° North 273 314 13,300 -1,680 Descending Salt Lake Center
11:27PM 46.5047 -113.9469 346° North 257 296 11,500 -1,860 Descending Salt Lake Center
11:28PM 46.5728 -113.9778 343° North 257 296 9,600 -1,440 Descending Salt Lake Center
11:29PM 46.6361 -114.0153 338° Northwest 249 287 8,600 -720 Descending Salt Lake Center
11:30PM 46.7047 -114.0425 345° North 234 269 8,200 -660 Descending Salt Lake Center
11:31PM 46.7603 -114.0689 342° North 213 245 7,300 -1,260 Descending Salt Lake Center
11:32PM 46.8117 -114.0478 16° North 201 231 5,700 -1,260 Descending Salt Lake Center
11:33PM 46.8608 -114.0175 23° Northeast 174 200 4,800 -1,020 Descending Salt Lake Center
11:34PM 46.8947 -114.0556 323° Northwest 159 183 3,700 -780 Descending Salt Lake Center
11:35PM 46.9194 -114.0978 311° West 157 181 3,300 -420 Descending Salt Lake Center